createdAt,value
2018-05-17T00:01:50.078Z,99996.75
2018-05-17T00:04:20.114Z,99990.42
2018-05-17T00:06:46.841Z,99998.27
2018-05-17T00:09:13.475Z,99994.31
2018-05-17T00:11:40.057Z,100003.46
2018-05-17T00:14:12.988Z,100004.68
2018-05-17T00:16:39.857Z,99995.01
2018-05-17T00:19:06.504Z,99994.36
2018-05-17T00:21:33.123Z,100004.84
2018-05-17T00:24:04.864Z,100000.48
2018-05-17T00:26:32.025Z,99994.67
2018-05-17T00:28:58.657Z,99985.91
2018-05-17T00:31:25.413Z,99985.91
2018-05-17T00:33:59.118Z,99990.27
2018-05-17T00:36:25.824Z,99995.96
2018-05-17T00:38:52.515Z,99997.55
2018-05-17T00:41:19.278Z,100002.47
2018-05-17T00:43:47.183Z,99991.50
2018-05-17T00:46:13.746Z,99987.30
2018-05-17T00:48:40.280Z,99980.63
2018-05-17T00:51:07.719Z,99987.61
2018-05-17T00:53:35.381Z,99992.97
2018-05-17T00:56:02.075Z,99997.61
2018-05-17T00:58:28.753Z,99991.83
2018-05-17T01:00:55.417Z,99996.41
2018-05-17T01:03:25.338Z,99991.59
2018-05-17T01:05:52.297Z,99999.58
2018-05-17T01:08:18.891Z,100006.70
2018-05-17T01:10:45.655Z,100005.12
2018-05-17T01:13:16.295Z,100001.23
2018-05-17T01:15:43.330Z,99989.69
2018-05-17T01:18:10.044Z,99979.41
2018-05-17T01:20:36.592Z,99982.76
2018-05-17T01:23:03.400Z,99994.97
2018-05-17T01:25:30.172Z,99997.23
2018-05-17T01:27:56.810Z,100012.08
2018-05-17T01:30:23.357Z,100010.37
2018-05-17T01:32:50.012Z,100012.43
2018-05-17T01:35:16.697Z,100006.32
2018-05-17T01:37:55.897Z,100008.48
2018-05-17T01:40:22.558Z,100020.44
2018-05-17T01:42:49.322Z,100017.20
2018-05-17T01:45:15.957Z,100006.20
2018-05-17T01:47:42.634Z,100003.13
2018-05-17T01:50:09.280Z,100001.18
2018-05-17T01:52:36.530Z,99989.40
2018-05-17T01:55:04.311Z,99965.83
2018-05-17T01:57:31.009Z,99969.74
2018-05-17T01:59:57.700Z,99967.20
2018-05-17T02:02:24.335Z,99959.66
2018-05-17T02:05:01.194Z,99963.28
2018-05-17T02:07:28.030Z,99962.88
2018-05-17T02:09:54.682Z,99971.95
2018-05-17T02:12:21.301Z,99965.39
2018-05-17T02:14:51.392Z,99972.13
2018-05-17T02:17:18.084Z,99977.44
2018-05-17T02:19:44.791Z,99983.05
2018-05-17T02:22:11.378Z,99984.70
2018-05-17T02:24:42.598Z,99986.37
2018-05-17T02:27:09.154Z,99988.41
2018-05-17T02:29:35.792Z,99971.47
2018-05-17T02:32:02.327Z,99972.45
2018-05-17T02:34:30.677Z,99978.90
2018-05-17T02:36:57.457Z,99976.47
2018-05-17T02:39:24.747Z,99977.02
2018-05-17T02:41:51.456Z,99983.86
2018-05-17T02:44:19.432Z,99976.50
2018-05-17T02:46:46.058Z,99982.14
2018-05-17T02:49:12.804Z,99988.50
2018-05-17T02:51:39.330Z,99992.20
2018-05-17T02:54:22.857Z,99995.64
2018-05-17T02:56:49.433Z,99996.95
2018-05-17T02:59:16.158Z,100001.23
2018-05-17T03:01:43.204Z,100000.51
2018-05-17T03:04:13.755Z,100008.44
2018-05-17T03:06:40.330Z,100013.08
2018-05-17T03:09:06.961Z,100007.00
2018-05-17T03:11:33.632Z,100009.49
2018-05-17T03:14:03.864Z,100009.53
2018-05-17T03:16:30.781Z,99997.09
2018-05-17T03:18:57.470Z,99993.66
2018-05-17T03:21:24.862Z,99988.27
2018-05-17T03:23:52.673Z,99994.57
2018-05-17T03:26:19.962Z,99991.61
2018-05-17T03:28:46.595Z,100000.27
2018-05-17T03:31:13.198Z,100004.44
2018-05-17T03:33:43.902Z,100007.05
2018-05-17T03:36:10.582Z,100005.83
2018-05-17T03:38:37.308Z,100008.77
2018-05-17T03:41:04.046Z,100009.38
2018-05-17T03:43:30.738Z,100020.20
2018-05-17T03:45:58.050Z,100022.67
2018-05-17T03:48:25.665Z,100026.10
2018-05-17T03:50:52.304Z,100029.31
2018-05-17T03:53:18.906Z,100022.41
2018-05-17T03:55:45.782Z,100024.20
2018-05-17T03:58:12.697Z,100022.33
2018-05-17T04:00:51.304Z,100026.55
2018-05-17T04:03:33.573Z,100025.97
2018-05-17T04:06:12.098Z,100036.22
2018-05-17T04:08:38.926Z,100034.23
2018-05-17T04:11:05.788Z,100038.77
2018-05-17T04:13:36.117Z,100039.56
2018-05-17T04:16:02.878Z,100039.45
2018-05-17T04:18:29.564Z,100039.89
2018-05-17T04:20:56.284Z,100042.08
2018-05-17T04:23:23.085Z,100036.91
2018-05-17T04:25:49.817Z,100035.00
2018-05-17T04:28:16.420Z,100037.08
2018-05-17T04:30:43.665Z,100028.42
2018-05-17T04:33:16.984Z,100036.44
2018-05-17T04:35:43.736Z,100036.36
2018-05-17T04:38:10.300Z,100029.31
2018-05-17T04:40:36.993Z,100027.15
2018-05-17T04:43:03.777Z,100012.89
2018-05-17T04:45:30.532Z,100008.67
2018-05-17T04:47:57.396Z,100012.56
2018-05-17T04:50:24.092Z,100004.95
2018-05-17T04:52:54.681Z,100005.99
2018-05-17T04:55:21.877Z,100016.43
2018-05-17T04:57:48.592Z,100014.04
2018-05-17T05:00:15.244Z,100014.38
2018-05-17T05:02:48.592Z,100010.66
2018-05-17T05:05:15.375Z,100017.40
2018-05-17T05:07:42.221Z,100025.31
2018-05-17T05:10:09.181Z,100023.93
2018-05-17T05:12:37.096Z,100032.19
2018-05-17T05:15:04.321Z,100034.41
2018-05-17T05:17:31.468Z,100036.59
2018-05-17T05:19:58.059Z,100040.55
2018-05-17T05:22:28.253Z,100035.96
2018-05-17T05:24:55.984Z,100041.67
2018-05-17T05:27:22.654Z,100039.92
2018-05-17T05:29:49.560Z,100041.05
2018-05-17T05:32:16.167Z,100047.31
2018-05-17T05:34:42.846Z,100045.92
2018-05-17T05:37:09.540Z,100044.98
2018-05-17T05:39:36.625Z,100046.54
2018-05-17T05:42:03.277Z,100050.98
2018-05-17T05:44:34.090Z,100049.62
2018-05-17T05:47:01.215Z,100043.41
2018-05-17T05:49:28.679Z,100041.17
2018-05-17T05:51:55.617Z,100042.14
2018-05-17T05:54:37.120Z,100037.81
2018-05-17T05:57:04.357Z,100044.41
2018-05-17T05:59:31.304Z,100041.33
2018-05-17T06:01:58.505Z,100045.61
2018-05-17T06:04:39.701Z,100045.06
2018-05-17T06:07:06.477Z,100039.20
2018-05-17T06:09:33.421Z,100041.35
2018-05-17T06:12:00.372Z,100036.93
2018-05-17T06:14:32.434Z,100035.41
2018-05-17T06:16:59.634Z,100024.77
2018-05-17T06:19:26.582Z,100031.43
2018-05-17T06:21:54.037Z,100038.80
2018-05-17T06:24:25.260Z,100040.81
2018-05-17T06:26:53.080Z,100036.24
2018-05-17T06:29:19.994Z,100025.80
2018-05-17T06:31:47.450Z,100024.80
2018-05-17T06:34:17.730Z,100022.88
2018-05-17T06:36:44.671Z,100013.42
2018-05-17T06:39:26.466Z,100015.83
2018-05-17T06:41:53.921Z,100013.48
2018-05-17T06:44:25.802Z,100008.69
2018-05-17T06:46:52.678Z,100005.51
2018-05-17T06:49:19.875Z,100013.42
2018-05-17T06:51:46.826Z,100012.77
2018-05-17T06:54:13.702Z,100014.03
2018-05-17T06:56:41.274Z,100013.22
2018-05-17T06:59:08.428Z,100013.83
2018-05-17T07:01:35.374Z,100003.95
2018-05-17T07:04:03.453Z,100007.95
2018-05-17T07:06:31.054Z,100013.77
2018-05-17T07:08:57.726Z,100013.98
2018-05-17T07:11:24.464Z,100015.71
2018-05-17T07:13:51.107Z,100021.83
2018-05-17T07:16:17.781Z,100016.47
2018-05-17T07:18:45.238Z,100015.03
2018-05-17T07:21:12.094Z,100015.33
2018-05-17T07:23:45.138Z,100014.31
2018-05-17T07:26:11.867Z,100021.02
2018-05-17T07:28:38.527Z,100022.38
2018-05-17T07:31:05.128Z,100024.89
2018-05-17T07:33:32.730Z,100026.14
2018-05-17T07:35:59.438Z,100029.51
2018-05-17T07:38:26.156Z,100024.00
2018-05-17T07:40:52.906Z,100030.98
2018-05-17T07:43:23.182Z,100027.98
2018-05-17T07:45:50.069Z,100037.44
2018-05-17T07:48:16.747Z,100033.75
2018-05-17T07:50:43.244Z,100027.77
2018-05-17T07:53:21.183Z,100035.41
2018-05-17T07:55:48.509Z,100037.44
2018-05-17T07:58:15.106Z,100033.05
2018-05-17T08:00:41.844Z,100038.84
2018-05-17T08:03:16.936Z,100035.42
2018-05-17T08:05:43.684Z,100042.36
2018-05-17T08:08:10.415Z,100040.27
2018-05-17T08:10:37.130Z,100033.42
2018-05-17T08:13:14.417Z,100028.96
2018-05-17T08:15:41.454Z,100033.25
2018-05-17T08:18:08.653Z,100035.88
2018-05-17T08:20:35.344Z,100027.83
2018-05-17T08:23:08.938Z,100029.86
2018-05-17T08:25:35.670Z,100035.45
2018-05-17T08:28:02.187Z,100038.69
2018-05-17T08:30:29.354Z,100044.02
2018-05-17T08:33:07.025Z,100034.39
2018-05-17T08:35:33.807Z,100040.80
2018-05-17T08:38:00.857Z,100052.58
2018-05-17T08:40:27.590Z,100046.58
2018-05-17T08:45:51.332Z,100048.95
2018-05-17T08:48:18.018Z,100048.83
2018-05-17T08:50:44.674Z,100066.33
2018-05-17T08:53:15.226Z,100068.02
2018-05-17T08:55:41.846Z,100074.88
2018-05-17T08:58:08.488Z,100068.66
2018-05-17T09:00:35.215Z,100079.46
2018-05-17T09:03:02.900Z,100078.19
2018-05-17T09:05:29.605Z,100086.30
2018-05-17T09:07:56.420Z,100091.92
2018-05-17T09:10:23.086Z,100099.09
2018-05-17T09:12:53.013Z,100106.59
2018-05-17T09:15:20.022Z,100103.65
2018-05-17T09:17:46.740Z,100110.73
2018-05-17T09:20:13.529Z,100120.58
2018-05-17T09:22:47.063Z,100123.17
2018-05-17T09:25:14.056Z,100129.62
2018-05-17T09:27:40.605Z,100124.15
2018-05-17T09:30:07.261Z,100133.43
2018-05-17T09:32:37.070Z,100122.42
2018-05-17T09:35:03.678Z,100111.20
2018-05-17T09:37:30.274Z,100103.12
2018-05-17T09:39:56.805Z,100102.83
2018-05-17T09:42:28.515Z,100108.92
2018-05-17T09:44:55.444Z,100108.84
2018-05-17T09:47:22.140Z,100102.23
2018-05-17T09:49:48.797Z,100111.02
2018-05-17T09:52:16.508Z,100100.03
2018-05-17T09:54:43.229Z,100096.90
2018-05-17T09:57:09.821Z,100084.24
2018-05-17T09:59:36.466Z,100074.83
2018-05-17T10:02:08.858Z,100076.03
2018-05-17T10:04:35.494Z,100072.59
2018-05-17T10:07:02.248Z,100078.37
2018-05-17T10:09:28.851Z,100078.98
2018-05-17T10:12:02.040Z,100078.84
2018-05-17T10:14:28.742Z,100074.99
2018-05-17T10:16:55.462Z,100073.69
2018-05-17T10:19:22.200Z,100067.64
2018-05-17T10:21:52.601Z,100071.48
2018-05-17T10:24:19.394Z,100065.72
2018-05-17T10:26:46.083Z,100057.77
2018-05-17T10:29:12.925Z,100049.62
2018-05-17T10:31:39.601Z,100042.08
2018-05-17T10:34:06.271Z,100034.88
2018-05-17T10:36:33.026Z,100035.05
2018-05-17T10:38:59.613Z,100031.03
2018-05-17T10:41:26.460Z,100028.22
2018-05-17T10:43:56.988Z,100011.71
2018-05-17T10:46:23.619Z,100007.91
2018-05-17T10:48:50.685Z,100007.28
2018-05-17T10:51:17.278Z,100005.26
2018-05-17T10:53:47.888Z,100005.29
2018-05-17T10:56:14.547Z,100007.66
2018-05-17T10:58:41.522Z,99994.70
2018-05-17T11:01:08.052Z,99996.85
2018-05-17T11:03:38.383Z,99993.72
2018-05-17T11:06:05.005Z,99989.12
2018-05-17T11:08:31.732Z,99990.16
2018-05-17T11:10:58.551Z,99984.64
2018-05-17T11:13:29.851Z,99987.77
2018-05-17T11:15:56.750Z,99982.66
2018-05-17T11:18:23.328Z,99982.82
2018-05-17T11:20:50.112Z,99970.64
2018-05-17T11:23:31.497Z,99972.21
2018-05-17T11:25:58.235Z,99957.75
2018-05-17T11:28:24.837Z,99961.02
2018-05-17T11:30:51.746Z,99966.00
2018-05-17T11:33:18.386Z,99958.30
2018-05-17T11:35:45.021Z,99964.48
2018-05-17T11:38:11.692Z,99959.18
2018-05-17T11:40:38.381Z,99954.95
2018-05-17T11:43:09.163Z,99965.20
2018-05-17T11:45:35.975Z,99957.08
2018-05-17T11:48:02.710Z,99968.27
2018-05-17T11:50:29.410Z,99967.43
2018-05-17T11:52:58.933Z,99964.22
2018-05-17T11:55:25.570Z,99963.09
2018-05-17T11:57:52.068Z,99969.38
2018-05-17T12:00:18.723Z,99957.32
2018-05-17T12:02:59.779Z,99967.35
2018-05-17T12:05:26.422Z,99964.66
2018-05-17T12:07:53.345Z,99956.74
2018-05-17T12:10:20.330Z,99951.39
2018-05-17T12:12:53.810Z,99953.29
2018-05-17T12:15:20.451Z,99955.32
2018-05-17T12:17:47.564Z,99957.16
2018-05-17T12:20:14.467Z,99950.37
2018-05-17T12:22:41.501Z,99940.36
2018-05-17T12:25:08.237Z,99931.27
2018-05-17T12:27:35.305Z,99933.45
2018-05-17T12:30:02.079Z,99925.58
2018-05-17T12:32:35.868Z,99927.86
2018-05-17T12:35:03.001Z,99923.01
2018-05-17T12:37:29.665Z,99913.22
2018-05-17T12:39:56.682Z,99911.48
2018-05-17T12:42:24.849Z,99912.63
2018-05-17T12:44:51.606Z,99923.41
2018-05-17T12:47:18.557Z,99920.06
2018-05-17T12:49:45.243Z,99907.44
2018-05-17T12:52:11.897Z,99908.07
2018-05-17T12:54:38.941Z,99902.63
2018-05-17T12:57:05.633Z,99908.59
2018-05-17T12:59:32.269Z,99907.90
2018-05-17T13:02:02.136Z,99902.05
2018-05-17T13:04:28.874Z,99918.58
2018-05-17T13:06:55.783Z,99927.25
2018-05-17T13:09:22.404Z,99933.89
2018-05-17T13:11:50.563Z,99940.70
2018-05-17T13:14:17.203Z,99931.20
2018-05-17T13:16:43.876Z,99940.21
2018-05-17T13:19:10.586Z,99931.55
2018-05-17T13:21:38.381Z,99924.05
2018-05-17T13:24:04.939Z,99929.73
2018-05-17T13:26:31.729Z,99922.03
2018-05-17T13:28:58.405Z,99924.05
2018-05-17T13:31:25.234Z,99922.31
2018-05-17T13:33:51.958Z,99914.70
2018-05-17T13:36:18.665Z,99904.33
2018-05-17T13:38:45.330Z,99908.16
2018-05-17T13:41:12.080Z,99902.77
2018-05-17T13:43:38.657Z,99910.64
2018-05-17T13:46:05.077Z,99907.27
2018-05-17T13:48:31.708Z,99891.75
2018-05-17T13:50:58.246Z,99889.83
2018-05-17T13:53:28.659Z,99898.02
2018-05-17T13:55:55.580Z,99908.58
2018-05-17T13:58:22.306Z,99907.36
2018-05-17T14:00:48.854Z,99907.70
2018-05-17T14:03:32.937Z,99911.17
2018-05-17T14:05:59.604Z,99907.94
2018-05-17T14:08:26.262Z,99902.11
2018-05-17T14:10:52.853Z,99903.22
2018-05-17T14:13:23.190Z,99909.45
2018-05-17T14:15:50.086Z,99913.23
2018-05-17T14:18:17.258Z,99924.61
2018-05-17T14:20:44.225Z,99940.96
2018-05-17T14:23:24.387Z,99933.52
2018-05-17T14:25:51.113Z,99933.14
2018-05-17T14:28:17.766Z,99925.35
2018-05-17T14:30:44.397Z,99919.17
2018-05-17T14:33:11.286Z,99906.55
2018-05-17T14:35:38.127Z,99906.05
2018-05-17T14:38:04.829Z,99908.35
2018-05-17T14:40:32.337Z,99906.55
2018-05-17T14:42:59.989Z,99899.48
2018-05-17T14:45:27.802Z,99895.70
2018-05-17T14:47:54.556Z,99882.45
2018-05-17T14:50:21.118Z,99883.62
2018-05-17T14:52:51.678Z,99897.13
2018-05-17T14:55:19.004Z,99895.25
2018-05-17T14:57:45.587Z,99902.51
2018-05-17T15:00:12.255Z,99897.09
2018-05-17T15:02:43.782Z,99904.75
2018-05-17T15:05:10.447Z,99912.05
2018-05-17T15:07:37.031Z,99922.64
2018-05-17T15:10:03.583Z,99917.73
2018-05-17T15:12:30.626Z,99921.02
2018-05-17T15:14:57.239Z,99930.23
2018-05-17T15:17:23.834Z,99936.56
2018-05-17T15:19:50.632Z,99938.69
2018-05-17T15:22:22.838Z,99940.11
2018-05-17T15:24:49.587Z,99953.50
2018-05-17T15:27:16.241Z,99955.20
2018-05-17T15:29:42.852Z,99950.13
2018-05-17T15:32:16.898Z,99957.30
2018-05-17T15:34:43.550Z,99968.25
2018-05-17T15:37:10.196Z,99969.63
2018-05-17T15:39:36.873Z,99962.91
2018-05-17T15:42:03.858Z,99965.92
2018-05-17T15:44:30.676Z,99967.81
2018-05-17T15:46:57.340Z,99971.39
2018-05-17T15:49:24.068Z,99973.98
2018-05-17T15:51:56.430Z,99965.50
2018-05-17T15:54:23.170Z,99959.53
2018-05-17T15:56:49.853Z,99958.86
2018-05-17T15:59:16.578Z,99968.02
2018-05-17T16:01:58.153Z,99964.69
2018-05-17T16:04:25.115Z,99958.05
2018-05-17T16:06:51.689Z,99946.63
2018-05-17T16:09:18.346Z,99939.78
2018-05-17T16:11:45.055Z,99928.86
2018-05-17T16:14:11.853Z,99922.98
2018-05-17T16:16:38.592Z,99916.75
2018-05-17T16:19:05.569Z,99918.53
2018-05-17T16:21:33.431Z,99921.53
2018-05-17T16:24:00.091Z,99927.79
2018-05-17T16:26:27.091Z,99940.68
2018-05-17T16:28:53.848Z,99963.06
2018-05-17T16:31:27.745Z,99980.69
2018-05-17T16:33:54.494Z,99996.12
2018-05-17T16:36:21.018Z,99993.11
2018-05-17T16:38:47.751Z,100009.57
2018-05-17T16:41:21.320Z,100019.68
2018-05-17T16:43:47.914Z,100006.64
2018-05-17T16:46:14.423Z,100003.52
2018-05-17T16:48:41.178Z,100009.35
2018-05-17T16:51:13.424Z,100006.70
2018-05-17T16:53:40.131Z,100001.53
2018-05-17T16:56:08.209Z,100006.77
2018-05-17T16:58:35.089Z,99994.09
2018-05-17T17:01:07.602Z,99987.47
2018-05-17T17:03:34.653Z,99975.04
2018-05-17T17:06:01.704Z,99987.88
2018-05-17T17:08:28.927Z,99989.44
2018-05-17T17:11:03.721Z,99980.11
2018-05-17T17:13:31.261Z,99967.16
2018-05-17T17:15:58.299Z,99972.62
2018-05-17T17:18:25.747Z,100011.54
2018-05-17T17:20:56.440Z,100031.00
2018-05-17T17:23:23.471Z,100012.70
2018-05-17T17:25:50.578Z,99997.78
2018-05-17T17:28:17.867Z,100025.20
2018-05-17T17:30:46.048Z,100053.34
2018-05-17T17:33:12.678Z,100054.99
2018-05-17T17:35:39.419Z,100044.39
2018-05-17T17:38:06.271Z,100029.90
2018-05-17T17:40:43.753Z,100022.01
2018-05-17T17:43:10.612Z,100024.71
2018-05-17T17:45:37.217Z,100008.46
2018-05-17T17:48:03.774Z,100003.80
2018-05-17T17:50:31.509Z,99996.90
2018-05-17T17:52:57.969Z,100001.79
2018-05-17T17:55:24.677Z,99998.39
2018-05-17T17:57:51.291Z,99994.79
2018-05-17T18:00:18.365Z,99989.59
2018-05-17T18:02:45.115Z,99993.09
2018-05-17T18:05:11.993Z,100008.58
2018-05-17T18:07:38.822Z,100009.64
2018-05-17T18:10:05.529Z,100012.85
2018-05-17T18:12:33.459Z,99999.23
2018-05-17T18:15:00.072Z,100006.20
2018-05-17T18:17:29.134Z,100016.66
2018-05-17T18:19:55.941Z,100012.11
2018-05-17T18:22:26.687Z,100014.60
2018-05-17T18:24:53.469Z,100010.53
2018-05-17T18:27:19.974Z,100010.29
2018-05-17T18:29:46.639Z,100016.61
2018-05-17T18:32:13.565Z,100013.24
2018-05-17T18:34:40.314Z,100042.31
2018-05-17T18:37:07.695Z,100045.98
2018-05-17T18:39:34.391Z,100037.75
2018-05-17T18:42:02.471Z,100044.03
2018-05-17T18:44:29.778Z,100056.33
2018-05-17T18:46:56.542Z,100068.95
2018-05-17T18:49:24.149Z,100077.31
2018-05-17T18:51:51.144Z,100077.28
2018-05-17T18:54:17.776Z,100058.25
2018-05-17T18:56:44.657Z,100050.66
2018-05-17T18:59:11.266Z,100056.60
2018-05-17T19:01:38.421Z,100063.35
2018-05-17T19:04:05.081Z,100068.34
2018-05-17T19:06:31.895Z,100062.54
2018-05-17T19:08:59.346Z,100047.29
2018-05-17T19:11:36.905Z,100040.44
2018-05-17T19:14:04.215Z,100037.33
2018-05-17T19:16:30.898Z,100050.02
2018-05-17T19:18:57.566Z,100031.07
2018-05-17T19:21:27.803Z,100030.52
2018-05-17T19:23:54.592Z,100033.87
2018-05-17T19:26:21.328Z,100028.28
2018-05-17T19:28:48.383Z,100036.66
2018-05-17T19:31:15.176Z,100033.07
2018-05-17T19:33:41.790Z,100040.09
2018-05-17T19:36:08.811Z,100057.06
2018-05-17T19:38:35.572Z,100068.25
2018-05-17T19:41:22.315Z,100084.59
2018-05-17T19:43:48.902Z,100118.43
2018-05-17T19:46:16.117Z,100139.64
2018-05-17T19:48:42.791Z,100148.89
2018-05-17T19:58:22.606Z,100141.14
2018-05-17T20:00:49.186Z,100149.55
2018-05-17T20:03:15.834Z,100153.06
2018-05-17T20:05:43.178Z,100161.01
2018-05-17T20:08:09.819Z,100142.89
2018-05-17T20:10:36.648Z,100136.66
2018-05-17T20:13:03.366Z,100121.82
2018-05-17T20:15:30.294Z,100120.19
2018-05-17T20:17:57.022Z,100122.77
2018-05-17T20:20:23.592Z,100137.30
2018-05-17T20:22:50.269Z,100158.00
2018-05-17T20:25:19.211Z,100168.72
2018-05-17T20:27:46.271Z,100202.50
2018-05-17T20:30:12.987Z,100206.18
2018-05-17T20:32:39.942Z,100229.91
2018-05-17T20:35:06.871Z,100239.38
2018-05-17T20:37:33.550Z,100248.00
2018-05-17T20:40:00.267Z,100261.09
2018-05-17T20:42:26.876Z,100271.73
2018-05-17T20:44:54.082Z,100279.02
2018-05-17T20:47:20.708Z,100276.36
2018-05-17T20:49:47.843Z,100258.59
2018-05-17T20:52:15.183Z,100261.37
2018-05-17T20:54:42.990Z,100274.14
2018-05-17T20:57:09.869Z,100268.31
2018-05-17T20:59:36.560Z,100249.83
2018-05-17T21:02:03.183Z,100227.55
2018-05-17T21:04:35.902Z,100232.57
2018-05-17T21:07:02.533Z,100210.31
2018-05-17T21:09:29.165Z,100211.95
2018-05-17T21:11:55.904Z,100202.53
2018-05-17T21:14:22.693Z,100168.42
2018-05-17T21:16:49.426Z,100160.34
2018-05-17T21:19:16.269Z,100148.39
2018-05-17T21:21:43.225Z,100131.73
2018-05-17T21:24:14.430Z,100151.36
2018-05-17T21:26:41.482Z,100155.90
2018-05-17T21:29:08.318Z,100158.01
2018-05-17T21:31:35.021Z,100133.41
2018-05-17T21:34:02.843Z,100118.09
2018-05-17T21:36:29.429Z,100112.04
2018-05-17T21:38:56.163Z,100095.17
2018-05-17T21:41:22.790Z,100097.89
2018-05-17T21:43:49.530Z,100100.97
2018-05-17T21:46:16.753Z,100106.25
2018-05-17T21:48:43.453Z,100098.21
2018-05-17T21:51:10.058Z,100093.20
2018-05-17T21:53:37.838Z,100086.61
2018-05-17T21:56:04.797Z,100095.32
2018-05-17T21:58:31.257Z,100103.09
2018-05-17T22:00:57.966Z,100103.70
2018-05-17T22:03:28.046Z,100107.28
2018-05-17T22:05:54.595Z,100113.98
2018-05-17T22:08:21.387Z,100123.88
2018-05-17T22:10:48.357Z,100128.54
2018-05-17T22:13:16.519Z,100127.27
2018-05-17T22:15:43.237Z,100127.57
2018-05-17T22:18:09.871Z,100120.08
2018-05-17T22:20:36.565Z,100122.00
2018-05-17T22:23:03.174Z,100128.56
2018-05-17T22:25:31.430Z,100116.73
2018-05-17T22:27:58.143Z,100116.41
2018-05-17T22:30:24.698Z,100120.81
2018-05-17T22:32:51.278Z,100117.72
2018-05-17T22:35:23.369Z,100116.97
2018-05-17T22:37:50.069Z,100133.02
2018-05-17T22:40:16.643Z,100122.80
2018-05-17T22:42:43.395Z,100128.63
2018-05-17T22:45:10.729Z,100126.50
2018-05-17T22:47:38.066Z,100128.31
2018-05-17T22:50:04.684Z,100132.30
2018-05-17T22:52:31.865Z,100130.86
2018-05-17T22:54:58.565Z,100120.83
2018-05-17T22:57:37.221Z,100110.86
2018-05-17T23:00:03.673Z,100099.77
2018-05-17T23:02:30.264Z,100102.98
2018-05-17T23:04:57.779Z,100110.09
2018-05-17T23:07:25.066Z,100111.33
2018-05-17T23:09:51.720Z,100114.41
2018-05-17T23:12:18.293Z,100109.77
2018-05-17T23:14:48.758Z,100109.09
2018-05-17T23:17:16.154Z,100105.34
2018-05-17T23:19:42.970Z,100094.81
2018-05-17T23:22:10.244Z,100096.96
2018-05-17T23:24:40.186Z,100102.81
2018-05-17T23:27:06.838Z,100103.15
2018-05-17T23:29:33.553Z,100097.87
2018-05-17T23:32:00.105Z,100090.19
2018-05-17T23:34:33.239Z,100091.06
2018-05-17T23:36:59.839Z,100090.31
2018-05-17T23:39:26.505Z,100097.48
2018-05-17T23:41:53.153Z,100096.22
2018-05-17T23:44:20.378Z,100099.41
2018-05-17T23:46:46.992Z,100102.86
2018-05-17T23:49:13.705Z,100098.39
2018-05-17T23:51:40.423Z,100095.98
2018-05-17T23:54:08.449Z,100101.20
2018-05-17T23:56:36.634Z,100097.54
2018-05-17T23:59:03.260Z,100101.80
